Time,TemperatureF,DewpointF,PressureIn,WindDirection,WindDirectionDegrees,WindSpeedMPH,WindSpeedGustMPH,Humidity,HourlyPrecipIn,Conditions,Clouds,dailyrainin,SoftwareType,DateUTC
2013-03-16 00:00:00,32.6,-18.0,29.61,North,0,0.0,0.0,1,0.00,,,0.00,WUHU216HW,2013-03-16 04:00:00,
2013-03-16 00:05:00,32.6,-18.0,29.62,North,0,0.0,0.0,1,0.00,,,0.00,WUHU216HW,2013-03-16 04:05:00,
2013-03-16 00:10:00,32.4,-18.1,29.63,North,0,0.0,0.0,1,0.00,,,0.00,WUHU216HW,2013-03-16 04:10:00,
2013-03-16 00:15:00,32.2,-18.3,29.63,North,0,0.0,0.0,1,0.00,,,0.00,WUHU216HW,2013-03-16 04:15:00,
2013-03-16 00:20:00,32.0,-18.4,29.63,North,0,0.0,0.0,1,0.00,,,0.00,WUHU216HW,2013-03-16 04:20:00,
2013-03-16 00:25:00,31.9,-18.5,29.64,North,0,0.0,0.0,1,0.00,,,0.00,WUHU216HW,2013-03-16 04:25:00,
2013-03-16 00:30:00,31.5,-18.8,29.64,North,0,0.0,0.0,1,0.00,,,0.00,WUHU216HW,2013-03-16 04:30:00,
2013-03-16 00:35:00,31.3,-18.9,29.64,North,0,0.0,0.0,1,0.00,,,0.00,WUHU216HW,2013-03-16 04:35:00,
2013-03-16 00:40:00,31.3,-18.9,29.64,North,0,0.0,0.0,1,0.00,,,0.00,WUHU216HW,2013-03-16 04:40:00,
2013-03-16 00:45:00,31.0,-19.3,29.64,North,0,0.0,0.0,2,0.00,,,0.00,WUHU216HW,2013-03-16 04:45:00,
2013-03-16 00:50:00,30.8,-19.3,29.64,North,0,0.0,0.0,6,0.00,,,0.00,WUHU216HW,2013-03-16 04:50:00,
2013-03-16 00:55:00,30.6,-19.5,29.64,North,0,0.0,0.0,10,0.00,,,0.00,WUHU216HW,2013-03-16 04:55:00,
2013-03-16 01:00:00,30.4,-18.3,29.64,North,0,0.0,0.0,11,0.00,,,0.00,WUHU216HW,2013-03-16 05:00:00,
2013-03-16 01:05:00,30.2,-18.4,29.64,North,0,0.0,0.0,11,0.00,,,0.00,WUHU216HW,2013-03-16 05:05:00,
2013-03-16 01:10:00,30.2,-19.8,29.65,North,0,0.0,0.0,10,0.00,,,0.00,WUHU216HW,2013-03-16 05:10:00,
2013-03-16 01:15:00,30.2,-19.8,29.65,North,0,0.0,0.0,10,0.00,,,0.00,WUHU216HW,2013-03-16 05:15:00,
2013-03-16 01:20:00,30.2,-17.1,29.65,North,0,0.0,0.0,12,0.00,,,0.00,WUHU216HW,2013-03-16 05:20:00,
2013-03-16 01:25:00,30.1,-13.1,29.66,North,0,0.0,0.0,15,0.00,,,0.00,WUHU216HW,2013-03-16 05:25:00,
2013-03-16 01:30:00,29.9,-10.5,29.66,North,0,0.0,0.0,17,0.00,,,0.00,WUHU216HW,2013-03-16 05:30:00,
2013-03-16 01:35:00,29.5,-4.1,29.66,North,0,0.0,0.0,23,0.00,,,0.00,WUHU216HW,2013-03-16 05:35:00,
2013-03-16 01:40:00,29.2,2.2,29.67,North,0,0.0,0.0,31,0.00,,,0.00,WUHU216HW,2013-03-16 05:40:00,
2013-03-16 01:45:00,28.8,6.3,29.67,North,0,0.0,0.0,38,0.00,,,0.00,WUHU216HW,2013-03-16 05:45:00,
2013-03-16 01:50:00,28.8,5.7,29.67,North,0,0.0,0.0,37,0.00,,,0.00,WUHU216HW,2013-03-16 05:50:00,
2013-03-16 01:55:00,28.8,6.3,29.67,North,0,0.0,0.0,38,0.00,,,0.00,WUHU216HW,2013-03-16 05:55:00,
2013-03-16 02:00:00,28.6,7.8,29.67,North,0,0.0,0.0,41,0.00,,,0.00,WUHU216HW,2013-03-16 06:00:00,
2013-03-16 02:05:00,28.4,8.2,29.68,North,0,0.0,0.0,42,0.00,,,0.00,WUHU216HW,2013-03-16 06:05:00,
2013-03-16 02:10:00,28.4,7.8,29.67,North,0,0.0,0.0,41,0.00,,,0.00,WUHU216HW,2013-03-16 06:10:00,
2013-03-16 02:15:00,28.4,7.2,29.68,North,0,0.0,0.0,40,0.00,,,0.00,WUHU216HW,2013-03-16 06:15:00,
2013-03-16 02:20:00,28.3,7.0,29.68,North,0,0.0,0.0,40,0.00,,,0.00,WUHU216HW,2013-03-16 06:20:00,
2013-03-16 02:25:00,28.4,7.2,29.68,North,0,0.0,0.0,40,0.00,,,0.00,WUHU216HW,2013-03-16 06:25:00,
2013-03-16 02:30:00,28.3,7.6,29.68,North,0,0.0,0.0,41,0.00,,,0.00,WUHU216HW,2013-03-16 06:30:00,
2013-03-16 02:35:00,28.3,7.0,29.68,North,0,0.0,0.0,40,0.00,,,0.00,WUHU216HW,2013-03-16 06:35:00,
2013-03-16 02:40:00,27.9,7.2,29.68,North,0,0.0,0.0,41,0.00,,,0.00,WUHU216HW,2013-03-16 06:40:00,
2013-03-16 02:45:00,27.7,7.6,29.68,North,0,0.0,0.0,42,0.00,,,0.00,WUHU216HW,2013-03-16 06:45:00,
2013-03-16 02:50:00,27.5,6.8,29.68,North,0,0.0,0.0,41,0.00,,,0.00,WUHU216HW,2013-03-16 06:50:00,
2013-03-16 02:55:00,27.5,6.8,29.69,North,0,0.0,0.0,41,0.00,,,0.00,WUHU216HW,2013-03-16 06:55:00,
2013-03-16 03:00:00,27.4,6.8,29.69,North,0,0.0,0.0,41,0.00,,,0.00,WUHU216HW,2013-03-16 07:00:00,
2013-03-16 03:05:00,27.2,6.6,29.68,North,0,0.0,0.0,41,0.00,,,0.00,WUHU216HW,2013-03-16 07:05:00,
2013-03-16 03:10:00,27.2,6.6,29.68,North,0,0.0,0.0,41,0.00,,,0.00,WUHU216HW,2013-03-16 07:10:00,
2013-03-16 03:15:00,27.0,6.4,29.69,North,0,0.0,0.0,41,0.00,,,0.00,WUHU216HW,2013-03-16 07:15:00,
2013-03-16 03:20:00,27.0,6.4,29.69,North,0,0.0,0.0,41,0.00,,,0.00,WUHU216HW,2013-03-16 07:20:00,
2013-03-16 03:25:00,26.8,6.2,29.69,North,0,0.0,0.0,41,0.00,,,0.00,WUHU216HW,2013-03-16 07:25:00,
2013-03-16 03:30:00,26.8,5.8,29.69,North,0,0.0,0.0,40,0.00,,,0.00,WUHU216HW,2013-03-16 07:30:00,
2013-03-16 03:35:00,26.8,5.8,29.69,North,0,0.0,0.0,40,0.00,,,0.00,WUHU216HW,2013-03-16 07:35:00,
2013-03-16 03:40:00,26.8,5.8,29.69,North,0,0.0,0.0,40,0.00,,,0.00,WUHU216HW,2013-03-16 07:40:00,
2013-03-16 03:45:00,26.8,5.8,29.69,North,0,0.0,0.0,40,0.00,,,0.00,WUHU216HW,2013-03-16 07:45:00,
2013-03-16 03:50:00,26.6,5.6,29.69,North,0,0.0,0.0,40,0.00,,,0.00,WUHU216HW,2013-03-16 07:50:00,
2013-03-16 03:55:00,26.3,5.8,29.69,North,0,0.0,0.0,41,0.00,,,0.00,WUHU216HW,2013-03-16 07:55:00,
2013-03-16 04:00:00,26.3,5.8,29.70,North,0,0.0,0.0,41,0.00,,,0.00,WUHU216HW,2013-03-16 08:00:00,
2013-03-16 04:05:00,26.3,5.8,29.70,North,0,0.0,0.0,41,0.00,,,0.00,WUHU216HW,2013-03-16 08:05:00,
2013-03-16 04:10:00,26.3,5.8,29.71,North,0,0.0,0.0,41,0.00,,,0.00,WUHU216HW,2013-03-16 08:10:00,
2013-03-16 04:15:00,26.1,6.0,29.71,North,0,0.0,0.0,42,0.00,,,0.00,WUHU216HW,2013-03-16 08:15:00,
2013-03-16 04:20:00,26.1,6.0,29.72,North,0,0.0,0.0,42,0.00,,,0.00,WUHU216HW,2013-03-16 08:20:00,
2013-03-16 04:25:00,25.9,6.0,29.72,North,0,0.0,0.0,42,0.00,,,0.00,WUHU216HW,2013-03-16 08:25:00,
2013-03-16 04:30:00,25.9,6.0,29.72,North,0,0.0,0.0,42,0.00,,,0.00,WUHU216HW,2013-03-16 08:30:00,
2013-03-16 04:35:00,25.9,6.0,29.72,North,0,0.0,0.0,42,0.00,,,0.00,WUHU216HW,2013-03-16 08:35:00,
2013-03-16 04:40:00,25.9,6.0,29.72,North,0,0.0,0.0,42,0.00,,,0.00,WUHU216HW,2013-03-16 08:40:00,
2013-03-16 04:45:00,25.7,5.8,29.72,North,0,0.0,0.0,42,0.00,,,0.00,WUHU216HW,2013-03-16 08:45:00,
2013-03-16 04:50:00,25.7,5.8,29.72,North,0,0.0,0.0,42,0.00,,,0.00,WUHU216HW,2013-03-16 08:50:00,
2013-03-16 04:55:00,25.7,5.2,29.72,North,0,0.0,0.0,41,0.00,,,0.00,WUHU216HW,2013-03-16 08:55:00,
2013-03-16 05:00:00,25.6,5.1,29.72,North,0,0.0,0.0,41,0.00,,,0.00,WUHU216HW,2013-03-16 09:00:00,
2013-03-16 05:05:00,25.7,5.2,29.73,North,0,0.0,0.0,41,0.00,,,0.00,WUHU216HW,2013-03-16 09:05:00,
2013-03-16 05:10:00,25.6,5.6,29.73,North,0,0.0,0.0,42,0.00,,,0.00,WUHU216HW,2013-03-16 09:10:00,
2013-03-16 05:15:00,25.6,5.6,29.73,North,0,0.0,0.0,42,0.00,,,0.00,WUHU216HW,2013-03-16 09:15:00,
2013-03-16 05:20:00,25.4,5.4,29.73,North,0,0.0,0.0,42,0.00,,,0.00,WUHU216HW,2013-03-16 09:20:00,
2013-03-16 05:25:00,25.4,5.4,29.73,North,0,0.0,0.0,42,0.00,,,0.00,WUHU216HW,2013-03-16 09:25:00,
2013-03-16 05:30:00,25.2,5.2,29.73,North,0,0.0,0.0,42,0.00,,,0.00,WUHU216HW,2013-03-16 09:30:00,
2013-03-16 05:35:00,25.2,5.2,29.74,North,0,0.0,0.0,42,0.00,,,0.00,WUHU216HW,2013-03-16 09:35:00,
2013-03-16 05:40:00,25.0,5.1,29.74,North,0,0.0,0.0,42,0.00,,,0.00,WUHU216HW,2013-03-16 09:40:00,
2013-03-16 05:45:00,24.8,5.0,29.74,North,0,0.0,0.0,42,0.00,,,0.00,WUHU216HW,2013-03-16 09:45:00,
2013-03-16 05:50:00,24.8,5.0,29.75,North,0,0.0,0.0,42,0.00,,,0.00,WUHU216HW,2013-03-16 09:50:00,
2013-03-16 05:55:00,24.5,5.1,29.75,North,0,0.0,0.0,43,0.00,,,0.00,WUHU216HW,2013-03-16 09:55:00,
2013-03-16 06:00:00,24.1,4.3,29.75,North,0,0.0,0.0,42,0.00,,,0.00,WUHU216HW,2013-03-16 10:00:00,
2013-03-16 06:05:00,24.1,4.3,29.76,North,0,0.0,0.0,42,0.00,,,0.00,WUHU216HW,2013-03-16 10:05:00,
2013-03-16 06:10:00,24.1,3.8,29.76,North,0,0.0,0.0,41,0.00,,,0.00,WUHU216HW,2013-03-16 10:10:00,
2013-03-16 06:15:00,24.1,3.8,29.76,North,0,0.0,0.0,41,0.00,,,0.00,WUHU216HW,2013-03-16 10:15:00,
2013-03-16 06:20:00,23.9,3.6,29.76,North,0,0.0,0.0,41,0.00,,,0.00,WUHU216HW,2013-03-16 10:20:00,
2013-03-16 06:25:00,23.9,3.2,29.76,North,0,0.0,0.0,40,0.00,,,0.00,WUHU216HW,2013-03-16 10:25:00,
2013-03-16 06:30:00,24.1,3.3,29.76,North,0,0.0,0.0,40,0.00,,,0.00,WUHU216HW,2013-03-16 10:30:00,
2013-03-16 06:35:00,24.1,3.3,29.76,North,0,0.0,0.0,40,0.00,,,0.00,WUHU216HW,2013-03-16 10:35:00,
2013-03-16 06:40:00,24.1,3.3,29.77,North,0,0.0,0.0,40,0.00,,,0.00,WUHU216HW,2013-03-16 10:40:00,
2013-03-16 06:45:00,24.1,2.7,29.76,North,0,0.0,0.0,39,0.00,,,0.00,WUHU216HW,2013-03-16 10:45:00,
2013-03-16 06:50:00,24.1,3.3,29.76,North,0,0.0,0.0,40,0.00,,,0.00,WUHU216HW,2013-03-16 10:50:00,
2013-03-16 06:55:00,24.3,3.5,29.76,North,0,0.0,0.0,40,0.00,,,0.00,WUHU216HW,2013-03-16 10:55:00,
2013-03-16 07:00:00,24.3,4.0,29.76,North,0,0.0,0.0,41,0.00,,,0.00,WUHU216HW,2013-03-16 11:00:00,
2013-03-16 07:05:00,24.5,4.6,29.77,North,0,0.0,0.0,42,0.00,,,0.00,WUHU216HW,2013-03-16 11:05:00,
2013-03-16 07:10:00,24.5,4.6,29.77,North,0,0.0,0.0,42,0.00,,,0.00,WUHU216HW,2013-03-16 11:10:00,
2013-03-16 07:15:00,24.7,5.2,29.77,North,0,0.0,0.0,43,0.00,,,0.00,WUHU216HW,2013-03-16 11:15:00,
2013-03-16 07:20:00,24.8,5.4,29.78,North,0,0.0,0.0,43,0.00,,,0.00,WUHU216HW,2013-03-16 11:20:00,
2013-03-16 07:25:00,24.8,5.4,29.78,North,0,0.0,0.0,43,0.00,,,0.00,WUHU216HW,2013-03-16 11:25:00,
2013-03-16 07:30:00,24.8,5.4,29.78,North,0,0.0,0.0,43,0.00,,,0.00,WUHU216HW,2013-03-16 11:30:00,
2013-03-16 07:35:00,25.2,5.8,29.78,North,0,0.0,0.0,43,0.00,,,0.00,WUHU216HW,2013-03-16 11:35:00,
2013-03-16 07:40:00,25.4,6.0,29.78,North,0,0.0,0.0,43,0.00,,,0.00,WUHU216HW,2013-03-16 11:40:00,
2013-03-16 07:45:00,25.2,6.2,29.78,North,0,0.0,0.0,44,0.00,,,0.00,WUHU216HW,2013-03-16 11:45:00,
2013-03-16 07:50:00,25.6,7.0,29.78,North,0,0.0,0.0,45,0.00,,,0.00,WUHU216HW,2013-03-16 11:50:00,
2013-03-16 07:55:00,25.6,7.6,29.78,North,0,0.0,0.0,46,0.00,,,0.00,WUHU216HW,2013-03-16 11:55:00,
2013-03-16 08:00:00,26.1,8.5,29.79,North,0,0.0,0.0,47,0.00,,,0.00,WUHU216HW,2013-03-16 12:00:00,
2013-03-16 08:05:00,26.6,8.5,29.78,North,0,0.0,0.0,46,0.00,,,0.00,WUHU216HW,2013-03-16 12:05:00,
2013-03-16 08:10:00,27.4,9.7,29.78,North,0,0.0,0.0,47,0.00,,,0.00,WUHU216HW,2013-03-16 12:10:00,
2013-03-16 08:15:00,27.9,11.2,29.78,North,0,0.0,0.0,49,0.00,,,0.00,WUHU216HW,2013-03-16 12:15:00,
2013-03-16 08:20:00,28.3,11.1,29.79,North,0,0.0,0.0,48,0.00,,,0.00,WUHU216HW,2013-03-16 12:20:00,
2013-03-16 08:25:00,28.8,13.0,29.79,North,0,0.0,0.0,51,0.00,,,0.00,WUHU216HW,2013-03-16 12:25:00,
2013-03-16 08:30:00,29.0,13.1,29.79,North,0,0.0,0.0,51,0.00,,,0.00,WUHU216HW,2013-03-16 12:30:00,
2013-03-16 08:35:00,28.8,12.6,29.79,North,0,0.0,0.0,50,0.00,,,0.00,WUHU216HW,2013-03-16 12:35:00,
2013-03-16 08:40:00,29.2,13.3,29.79,North,0,0.0,0.0,51,0.00,,,0.00,WUHU216HW,2013-03-16 12:40:00,
2013-03-16 08:45:00,29.5,13.6,29.79,North,0,0.0,0.0,51,0.00,,,0.00,WUHU216HW,2013-03-16 12:45:00,
2013-03-16 08:50:00,29.9,14.0,29.79,North,0,0.0,0.0,51,0.00,,,0.00,WUHU216HW,2013-03-16 12:50:00,
2013-03-16 08:55:00,30.1,14.1,29.79,North,0,0.0,0.0,51,0.00,,,0.00,WUHU216HW,2013-03-16 12:55:00,
2013-03-16 09:00:00,29.9,14.0,29.79,North,0,0.0,0.0,51,0.00,,,0.00,WUHU216HW,2013-03-16 13:00:00,
2013-03-16 09:05:00,30.2,14.3,29.79,North,0,0.0,0.0,51,0.00,,,0.00,WUHU216HW,2013-03-16 13:05:00,
2013-03-16 09:10:00,30.1,14.1,29.79,North,0,0.0,0.0,51,0.00,,,0.00,WUHU216HW,2013-03-16 13:10:00,
2013-03-16 09:15:00,30.4,14.4,29.79,North,0,0.0,0.0,51,0.00,,,0.00,WUHU216HW,2013-03-16 13:15:00,
2013-03-16 09:20:00,30.2,14.3,29.80,North,0,0.0,0.0,51,0.00,,,0.00,WUHU216HW,2013-03-16 13:20:00,
2013-03-16 09:25:00,30.6,14.6,29.79,North,0,0.0,0.0,51,0.00,,,0.00,WUHU216HW,2013-03-16 13:25:00,
2013-03-16 09:30:00,30.6,14.6,29.79,North,0,0.0,0.0,51,0.00,,,0.00,WUHU216HW,2013-03-16 13:30:00,
2013-03-16 09:35:00,31.0,15.0,29.79,North,0,0.0,0.0,51,0.00,,,0.00,WUHU216HW,2013-03-16 13:35:00,
2013-03-16 09:40:00,31.1,15.1,29.80,North,0,0.0,0.0,51,0.00,,,0.00,WUHU216HW,2013-03-16 13:40:00,
2013-03-16 09:45:00,31.1,15.1,29.80,North,0,0.0,0.0,51,0.00,,,0.00,WUHU216HW,2013-03-16 13:45:00,
2013-03-16 09:50:00,31.3,15.3,29.80,North,0,0.0,0.0,51,0.00,,,0.00,WUHU216HW,2013-03-16 13:50:00,
2013-03-16 09:55:00,31.3,15.3,29.80,North,0,0.0,0.0,51,0.00,,,0.00,WUHU216HW,2013-03-16 13:55:00,
2013-03-16 10:00:00,31.9,16.2,29.79,North,0,0.0,0.0,52,0.00,,,0.00,WUHU216HW,2013-03-16 14:00:00,
2013-03-16 10:05:00,32.0,14.9,29.79,North,0,0.0,0.0,49,0.00,,,0.00,WUHU216HW,2013-03-16 14:05:00,
2013-03-16 10:10:00,32.0,15.5,29.80,North,0,0.0,0.0,50,0.00,,,0.00,WUHU216HW,2013-03-16 14:10:00,
2013-03-16 10:15:00,32.0,15.5,29.80,North,0,0.0,0.0,50,0.00,,,0.00,WUHU216HW,2013-03-16 14:15:00,
2013-03-16 10:20:00,32.4,15.9,29.80,North,0,0.0,0.0,50,0.00,,,0.00,WUHU216HW,2013-03-16 14:20:00,
2013-03-16 10:25:00,32.9,16.3,29.79,North,0,0.0,0.0,50,0.00,,,0.00,WUHU216HW,2013-03-16 14:25:00,
2013-03-16 10:30:00,33.1,15.9,29.79,North,0,0.0,0.0,49,0.00,,,0.00,WUHU216HW,2013-03-16 14:30:00,
2013-03-16 10:35:00,32.9,15.8,29.79,North,0,0.0,0.0,49,0.00,,,0.00,WUHU216HW,2013-03-16 14:35:00,
2013-03-16 10:40:00,32.9,15.3,29.79,North,0,0.0,0.0,48,0.00,,,0.00,WUHU216HW,2013-03-16 14:40:00,
2013-03-16 10:45:00,33.1,15.9,29.79,North,0,0.0,0.0,49,0.00,,,0.00,WUHU216HW,2013-03-16 14:45:00,
2013-03-16 10:50:00,33.3,16.1,29.79,North,0,0.0,0.0,49,0.00,,,0.00,WUHU216HW,2013-03-16 14:50:00,
2013-03-16 10:55:00,33.5,15.8,29.79,North,0,0.0,0.0,48,0.00,,,0.00,WUHU216HW,2013-03-16 14:55:00,
2013-03-16 11:00:00,34.0,16.7,29.79,North,0,0.0,0.0,49,0.00,,,0.00,WUHU216HW,2013-03-16 15:00:00,
2013-03-16 11:05:00,34.0,15.8,29.79,North,0,0.0,0.0,47,0.00,,,0.00,WUHU216HW,2013-03-16 15:05:00,
2013-03-16 11:10:00,34.4,15.6,29.79,North,0,0.0,0.0,46,0.00,,,0.00,WUHU216HW,2013-03-16 15:10:00,
2013-03-16 11:15:00,35.1,16.3,29.79,North,0,0.0,0.0,46,0.00,,,0.00,WUHU216HW,2013-03-16 15:15:00,
2013-03-16 11:20:00,35.3,17.0,29.79,North,0,0.0,0.0,47,0.00,,,0.00,WUHU216HW,2013-03-16 15:20:00,
2013-03-16 11:25:00,35.8,17.0,29.79,North,0,0.0,0.0,46,0.00,,,0.00,WUHU216HW,2013-03-16 15:25:00,
2013-03-16 11:30:00,36.2,17.3,29.79,North,0,0.0,0.0,46,0.00,,,0.00,WUHU216HW,2013-03-16 15:30:00,
2013-03-16 11:35:00,36.0,16.1,29.79,North,0,0.0,0.0,44,0.00,,,0.00,WUHU216HW,2013-03-16 15:35:00,
2013-03-16 11:40:00,35.8,16.5,29.79,North,0,0.0,0.0,45,0.00,,,0.00,WUHU216HW,2013-03-16 15:40:00,
2013-03-16 11:45:00,35.6,15.2,29.79,North,0,0.0,0.0,43,0.00,,,0.00,WUHU216HW,2013-03-16 15:45:00,
2013-03-16 11:50:00,35.3,15.4,29.79,North,0,0.0,0.0,44,0.00,,,0.00,WUHU216HW,2013-03-16 15:50:00,
2013-03-16 11:55:00,34.7,14.4,29.78,North,0,0.0,0.0,43,0.00,,,0.00,WUHU216HW,2013-03-16 15:55:00,
2013-03-16 12:00:00,34.9,15.1,29.78,North,0,0.0,0.0,44,0.00,,,0.00,WUHU216HW,2013-03-16 16:00:00,
2013-03-16 12:05:00,35.3,15.4,29.78,North,0,0.0,0.0,44,0.00,,,0.00,WUHU216HW,2013-03-16 16:05:00,
2013-03-16 12:10:00,35.8,15.4,29.78,North,0,0.0,0.0,43,0.00,,,0.00,WUHU216HW,2013-03-16 16:10:00,
2013-03-16 12:15:00,36.5,15.6,29.78,North,0,0.0,0.0,42,0.00,,,0.00,WUHU216HW,2013-03-16 16:15:00,
2013-03-16 12:20:00,36.4,15.4,29.78,North,0,0.0,0.0,42,0.00,,,0.00,WUHU216HW,2013-03-16 16:20:00,
2013-03-16 12:25:00,36.4,15.4,29.78,North,0,0.0,0.0,42,0.00,,,0.00,WUHU216HW,2013-03-16 16:25:00,
2013-03-16 12:30:00,36.7,13.3,29.78,North,0,0.0,0.0,38,0.00,,,0.00,WUHU216HW,2013-03-16 16:30:00,
2013-03-16 12:35:00,36.7,14.1,29.78,North,0,0.0,0.0,39,0.00,,,0.00,WUHU216HW,2013-03-16 16:35:00,
2013-03-16 12:40:00,37.1,16.0,29.78,North,0,0.0,0.0,42,0.00,,,0.00,WUHU216HW,2013-03-16 16:40:00,
2013-03-16 12:45:00,37.4,14.1,29.78,North,0,0.0,0.0,38,0.00,,,0.00,WUHU216HW,2013-03-16 16:45:00,
2013-03-16 12:50:00,37.1,12.4,29.77,North,0,0.0,0.0,36,0.00,,,0.00,WUHU216HW,2013-03-16 16:50:00,
2013-03-16 12:55:00,36.7,12.7,29.77,North,0,0.0,0.0,37,0.00,,,0.00,WUHU216HW,2013-03-16 16:55:00,
2013-03-16 13:00:00,36.9,14.1,29.77,North,0,0.0,0.0,39,0.00,,,0.00,WUHU216HW,2013-03-16 17:00:00,
2013-03-16 13:05:00,37.1,13.1,29.77,North,0,0.0,0.0,37,0.00,,,0.00,WUHU216HW,2013-03-16 17:05:00,
2013-03-16 13:10:00,36.5,13.2,29.77,North,0,0.0,0.0,38,0.00,,,0.00,WUHU216HW,2013-03-16 17:10:00,
2013-03-16 13:15:00,36.4,13.1,29.77,North,0,0.0,0.0,38,0.00,,,0.00,WUHU216HW,2013-03-16 17:15:00,
2013-03-16 13:20:00,36.4,13.1,29.77,North,0,0.0,0.0,38,0.00,,,0.00,WUHU216HW,2013-03-16 17:20:00,
2013-03-16 13:25:00,36.0,12.1,29.77,North,0,0.0,0.0,37,0.00,,,0.00,WUHU216HW,2013-03-16 17:25:00,
2013-03-16 13:30:00,36.0,14.1,29.76,North,0,0.0,0.0,40,0.00,,,0.00,WUHU216HW,2013-03-16 17:30:00,
2013-03-16 13:35:00,36.5,13.2,29.76,North,0,0.0,0.0,38,0.00,,,0.00,WUHU216HW,2013-03-16 17:35:00,
2013-03-16 13:40:00,36.7,14.7,29.76,North,0,0.0,0.0,40,0.00,,,0.00,WUHU216HW,2013-03-16 17:40:00,
2013-03-16 13:45:00,37.1,13.7,29.76,North,0,0.0,0.0,38,0.00,,,0.00,WUHU216HW,2013-03-16 17:45:00,
2013-03-16 13:50:00,37.1,14.3,29.76,North,0,0.0,0.0,39,0.00,,,0.00,WUHU216HW,2013-03-16 17:50:00,
2013-03-16 13:55:00,37.1,14.3,29.76,North,0,0.0,0.0,39,0.00,,,0.00,WUHU216HW,2013-03-16 17:55:00,
2013-03-16 14:00:00,37.1,13.7,29.76,North,0,0.0,0.0,38,0.00,,,0.00,WUHU216HW,2013-03-16 18:00:00,
2013-03-16 14:05:00,36.9,14.1,29.76,North,0,0.0,0.0,39,0.00,,,0.00,WUHU216HW,2013-03-16 18:05:00,
2013-03-16 14:10:00,36.9,13.5,29.76,North,0,0.0,0.0,38,0.00,,,0.00,WUHU216HW,2013-03-16 18:10:00,
2013-03-16 14:15:00,36.9,13.5,29.76,North,0,0.0,0.0,38,0.00,,,0.00,WUHU216HW,2013-03-16 18:15:00,
2013-03-16 14:20:00,37.1,13.7,29.76,North,0,0.0,0.0,38,0.00,,,0.00,WUHU216HW,2013-03-16 18:20:00,
2013-03-16 14:25:00,36.7,13.3,29.76,North,0,0.0,0.0,38,0.00,,,0.00,WUHU216HW,2013-03-16 18:25:00,
2013-03-16 14:30:00,36.4,13.1,29.75,North,0,0.0,0.0,38,0.00,,,0.00,WUHU216HW,2013-03-16 18:30:00,
2013-03-16 14:35:00,36.4,13.1,29.75,North,0,0.0,0.0,38,0.00,,,0.00,WUHU216HW,2013-03-16 18:35:00,
2013-03-16 14:40:00,36.4,13.1,29.75,North,0,0.0,0.0,38,0.00,,,0.00,WUHU216HW,2013-03-16 18:40:00,
2013-03-16 14:45:00,36.7,12.7,29.75,North,0,0.0,0.0,37,0.00,,,0.00,WUHU216HW,2013-03-16 18:45:00,
2013-03-16 14:50:00,36.7,13.3,29.75,North,0,0.0,0.0,38,0.00,,,0.00,WUHU216HW,2013-03-16 18:50:00,
2013-03-16 14:55:00,36.4,11.7,29.75,North,0,0.0,0.0,36,0.00,,,0.00,WUHU216HW,2013-03-16 18:55:00,
2013-03-16 15:00:00,36.5,13.2,29.76,North,0,0.0,0.0,38,0.00,,,0.00,WUHU216HW,2013-03-16 19:00:00,
2013-03-16 15:05:00,36.9,13.5,29.76,North,0,0.0,0.0,38,0.00,,,0.00,WUHU216HW,2013-03-16 19:05:00,
2013-03-16 15:10:00,37.4,14.7,29.76,North,0,0.0,0.0,39,0.00,,,0.00,WUHU216HW,2013-03-16 19:10:00,
2013-03-16 15:15:00,37.6,14.1,29.76,North,0,0.0,0.0,38,0.00,,,0.00,WUHU216HW,2013-03-16 19:15:00,
2013-03-16 15:20:00,37.3,13.2,29.76,North,0,0.0,0.0,37,0.00,,,0.00,WUHU216HW,2013-03-16 19:20:00,
2013-03-16 15:25:00,37.1,13.7,29.75,North,0,0.0,0.0,38,0.00,,,0.00,WUHU216HW,2013-03-16 19:25:00,
2013-03-16 15:30:00,37.1,13.7,29.75,North,0,0.0,0.0,38,0.00,,,0.00,WUHU216HW,2013-03-16 19:30:00,
2013-03-16 15:35:00,37.1,13.7,29.75,North,0,0.0,0.0,38,0.00,,,0.00,WUHU216HW,2013-03-16 19:35:00,
2013-03-16 15:40:00,37.1,13.7,29.76,North,0,0.0,0.0,38,0.00,,,0.00,WUHU216HW,2013-03-16 19:40:00,
2013-03-16 15:45:00,37.1,13.7,29.76,North,0,0.0,0.0,38,0.00,,,0.00,WUHU216HW,2013-03-16 19:45:00,
2013-03-16 15:50:00,36.4,12.4,29.76,North,0,0.0,0.0,37,0.00,,,0.00,WUHU216HW,2013-03-16 19:50:00,
2013-03-16 15:55:00,36.2,12.3,29.76,North,0,0.0,0.0,37,0.00,,,0.00,WUHU216HW,2013-03-16 19:55:00,
2013-03-16 16:00:00,36.4,13.1,29.76,North,0,0.0,0.0,38,0.00,,,0.00,WUHU216HW,2013-03-16 20:00:00,
2013-03-16 16:05:00,36.4,12.4,29.76,North,0,0.0,0.0,37,0.00,,,0.00,WUHU216HW,2013-03-16 20:05:00,
2013-03-16 16:10:00,36.2,12.9,29.76,North,0,0.0,0.0,38,0.00,,,0.00,WUHU216HW,2013-03-16 20:10:00,
2013-03-16 16:15:00,36.4,13.1,29.76,North,0,0.0,0.0,38,0.00,,,0.00,WUHU216HW,2013-03-16 20:15:00,
2013-03-16 16:20:00,36.4,13.1,29.75,North,0,0.0,0.0,38,0.00,,,0.00,WUHU216HW,2013-03-16 20:20:00,
2013-03-16 16:25:00,36.5,12.5,29.75,North,0,0.0,0.0,37,0.00,,,0.00,WUHU216HW,2013-03-16 20:25:00,
2013-03-16 16:30:00,36.4,12.4,29.75,North,0,0.0,0.0,37,0.00,,,0.00,WUHU216HW,2013-03-16 20:30:00,
2013-03-16 16:35:00,36.4,11.7,29.75,North,0,0.0,0.0,36,0.00,,,0.00,WUHU216HW,2013-03-16 20:35:00,
2013-03-16 16:40:00,36.4,12.4,29.74,North,0,0.0,0.0,37,0.00,,,0.00,WUHU216HW,2013-03-16 20:40:00,
2013-03-16 16:45:00,36.2,12.3,29.74,North,0,0.0,0.0,37,0.00,,,0.00,WUHU216HW,2013-03-16 20:45:00,
2013-03-16 16:50:00,36.7,12.7,29.74,North,0,0.0,0.0,37,0.00,,,0.00,WUHU216HW,2013-03-16 20:50:00,
2013-03-16 16:55:00,37.3,13.2,29.74,North,0,0.0,0.0,37,0.00,,,0.00,WUHU216HW,2013-03-16 20:55:00,
2013-03-16 17:00:00,37.3,13.2,29.74,North,0,0.0,0.0,37,0.00,,,0.00,WUHU216HW,2013-03-16 21:00:00,
2013-03-16 17:05:00,37.4,13.3,29.74,North,0,0.0,0.0,37,0.00,,,0.00,WUHU216HW,2013-03-16 21:05:00,
2013-03-16 17:10:00,37.1,13.1,29.73,North,0,0.0,0.0,37,0.00,,,0.00,WUHU216HW,2013-03-16 21:10:00,
2013-03-16 17:15:00,36.7,12.7,29.74,North,0,0.0,0.0,37,0.00,,,0.00,WUHU216HW,2013-03-16 21:15:00,
2013-03-16 17:20:00,36.7,12.7,29.74,North,0,0.0,0.0,37,0.00,,,0.00,WUHU216HW,2013-03-16 21:20:00,
2013-03-16 17:25:00,36.7,13.3,29.74,North,0,0.0,0.0,38,0.00,,,0.00,WUHU216HW,2013-03-16 21:25:00,
2013-03-16 17:30:00,36.5,13.2,29.74,North,0,0.0,0.0,38,0.00,,,0.00,WUHU216HW,2013-03-16 21:30:00,
2013-03-16 17:35:00,36.4,13.7,29.74,North,0,0.0,0.0,39,0.00,,,0.00,WUHU216HW,2013-03-16 21:35:00,
2013-03-16 17:40:00,36.0,13.3,29.74,North,0,0.0,0.0,39,0.00,,,0.00,WUHU216HW,2013-03-16 21:40:00,
2013-03-16 17:45:00,35.6,13.1,29.74,North,0,0.0,0.0,39,0.00,,,0.00,WUHU216HW,2013-03-16 21:45:00,
2013-03-16 17:50:00,35.1,12.5,29.75,North,0,0.0,0.0,39,0.00,,,0.00,WUHU216HW,2013-03-16 21:50:00,
2013-03-16 17:55:00,34.9,13.1,29.75,North,0,0.0,0.0,40,0.00,,,0.00,WUHU216HW,2013-03-16 21:55:00,
2013-03-16 18:00:00,34.7,12.9,29.75,North,0,0.0,0.0,40,0.00,,,0.00,WUHU216HW,2013-03-16 22:00:00,
2013-03-16 18:05:00,34.4,12.5,29.75,North,0,0.0,0.0,40,0.00,,,0.00,WUHU216HW,2013-03-16 22:05:00,
2013-03-16 18:10:00,34.2,12.4,29.75,North,0,0.0,0.0,40,0.00,,,0.00,WUHU216HW,2013-03-16 22:10:00,
2013-03-16 18:15:00,34.0,12.3,29.74,North,0,0.0,0.0,40,0.00,,,0.00,WUHU216HW,2013-03-16 22:15:00,
2013-03-16 18:20:00,33.8,12.6,29.74,North,0,0.0,0.0,41,0.00,,,0.00,WUHU216HW,2013-03-16 22:20:00,
2013-03-16 18:25:00,33.7,12.9,29.75,North,0,0.0,0.0,42,0.00,,,0.00,WUHU216HW,2013-03-16 22:25:00,
2013-03-16 18:30:00,33.5,12.2,29.75,North,0,0.0,0.0,41,0.00,,,0.00,WUHU216HW,2013-03-16 22:30:00,
2013-03-16 18:35:00,33.3,12.1,29.75,North,0,0.0,0.0,41,0.00,,,0.00,WUHU216HW,2013-03-16 22:35:00,
2013-03-16 18:39:00,33.3,12.6,29.75,North,0,0.0,0.0,42,0.00,,,0.00,WUHU216HW,2013-03-16 22:39:00,
2013-03-16 18:44:00,33.3,12.6,29.75,North,0,0.0,0.0,42,0.00,,,0.00,WUHU216HW,2013-03-16 22:44:00,
2013-03-16 18:49:00,33.3,12.6,29.75,North,0,0.0,0.0,42,0.00,,,0.00,WUHU216HW,2013-03-16 22:49:00,
2013-03-16 18:54:00,33.3,12.6,29.76,North,0,0.0,0.0,42,0.00,,,0.00,WUHU216HW,2013-03-16 22:54:00,
2013-03-16 18:59:00,33.3,12.6,29.76,North,0,0.0,0.0,42,0.00,,,0.00,WUHU216HW,2013-03-16 22:59:00,
2013-03-16 19:04:00,32.9,12.2,29.76,North,0,0.0,0.0,42,0.00,,,0.00,WUHU216HW,2013-03-16 23:04:00,
2013-03-16 19:09:00,32.8,12.6,29.76,North,0,0.0,0.0,43,0.00,,,0.00,WUHU216HW,2013-03-16 23:09:00,
2013-03-16 19:14:00,32.6,12.4,29.76,North,0,0.0,0.0,43,0.00,,,0.00,WUHU216HW,2013-03-16 23:14:00,
2013-03-16 19:19:00,32.4,12.2,29.76,North,0,0.0,0.0,43,0.00,,,0.00,WUHU216HW,2013-03-16 23:19:00,
2013-03-16 19:24:00,32.2,12.6,29.76,North,0,0.0,0.0,44,0.00,,,0.00,WUHU216HW,2013-03-16 23:24:00,
2013-03-16 19:29:00,32.0,12.4,29.77,North,0,0.0,0.0,44,0.00,,,0.00,WUHU216HW,2013-03-16 23:29:00,
2013-03-16 19:34:00,32.0,12.4,29.77,North,0,0.0,0.0,44,0.00,,,0.00,WUHU216HW,2013-03-16 23:34:00,
2013-03-16 19:39:00,31.9,12.8,29.77,North,0,0.0,0.0,45,0.00,,,0.00,WUHU216HW,2013-03-16 23:39:00,
2013-03-16 19:44:00,31.5,12.5,29.77,North,0,0.0,0.0,45,0.00,,,0.00,WUHU216HW,2013-03-16 23:44:00,
2013-03-16 19:49:00,31.3,12.3,29.77,North,0,0.0,0.0,45,0.00,,,0.00,WUHU216HW,2013-03-16 23:49:00,
2013-03-16 19:54:00,31.1,12.2,29.78,North,0,0.0,0.0,45,0.00,,,0.00,WUHU216HW,2013-03-16 23:54:00,
2013-03-16 19:59:00,31.1,12.7,29.78,North,0,0.0,0.0,46,0.00,,,0.00,WUHU216HW,2013-03-16 23:59:00,
2013-03-16 20:04:00,31.1,12.7,29.78,North,0,0.0,0.0,46,0.00,,,0.00,WUHU216HW,2013-03-17 00:04:00,
2013-03-16 20:09:00,31.3,12.8,29.78,North,0,0.0,0.0,46,0.00,,,0.00,WUHU216HW,2013-03-17 00:09:00,
2013-03-16 20:14:00,31.3,12.8,29.78,North,0,0.0,0.0,46,0.00,,,0.00,WUHU216HW,2013-03-17 00:14:00,
2013-03-16 20:19:00,31.3,12.8,29.78,North,0,0.0,0.0,46,0.00,,,0.00,WUHU216HW,2013-03-17 00:19:00,
2013-03-16 20:24:00,31.1,12.7,29.79,North,0,0.0,0.0,46,0.00,,,0.00,WUHU216HW,2013-03-17 00:24:00,
2013-03-16 20:29:00,31.0,12.5,29.78,North,0,0.0,0.0,46,0.00,,,0.00,WUHU216HW,2013-03-17 00:29:00,
2013-03-16 20:34:00,31.0,12.5,29.79,North,0,0.0,0.0,46,0.00,,,0.00,WUHU216HW,2013-03-17 00:34:00,
2013-03-16 20:39:00,30.8,12.3,29.79,North,0,0.0,0.0,46,0.00,,,0.00,WUHU216HW,2013-03-17 00:39:00,
2013-03-16 20:44:00,30.8,12.3,29.79,North,0,0.0,0.0,46,0.00,,,0.00,WUHU216HW,2013-03-17 00:44:00,
2013-03-16 20:49:00,30.6,12.2,29.79,North,0,0.0,0.0,46,0.00,,,0.00,WUHU216HW,2013-03-17 00:49:00,
2013-03-16 20:54:00,30.6,12.2,29.79,North,0,0.0,0.0,46,0.00,,,0.00,WUHU216HW,2013-03-17 00:54:00,
2013-03-16 20:59:00,30.6,12.2,29.79,North,0,0.0,0.0,46,0.00,,,0.00,WUHU216HW,2013-03-17 00:59:00,
2013-03-16 21:04:00,30.4,12.5,29.80,North,0,0.0,0.0,47,0.00,,,0.00,WUHU216HW,2013-03-17 01:04:00,
2013-03-16 21:09:00,30.4,12.5,29.80,North,0,0.0,0.0,47,0.00,,,0.00,WUHU216HW,2013-03-17 01:09:00,
2013-03-16 21:14:00,30.2,12.3,29.80,North,0,0.0,0.0,47,0.00,,,0.00,WUHU216HW,2013-03-17 01:14:00,
2013-03-16 21:19:00,30.4,13.1,29.80,North,0,0.0,0.0,48,0.00,,,0.00,WUHU216HW,2013-03-17 01:19:00,
2013-03-16 21:24:00,30.4,13.1,29.80,North,0,0.0,0.0,48,0.00,,,0.00,WUHU216HW,2013-03-17 01:24:00,
2013-03-16 21:29:00,30.4,13.1,29.81,North,0,0.0,0.0,48,0.00,,,0.00,WUHU216HW,2013-03-17 01:29:00,
2013-03-16 21:34:00,30.4,13.1,29.81,North,0,0.0,0.0,48,0.00,,,0.00,WUHU216HW,2013-03-17 01:34:00,
2013-03-16 21:39:00,30.2,13.3,29.81,North,0,0.0,0.0,49,0.00,,,0.00,WUHU216HW,2013-03-17 01:39:00,
2013-03-16 21:44:00,30.2,13.9,29.81,North,0,0.0,0.0,50,0.00,,,0.00,WUHU216HW,2013-03-17 01:44:00,
2013-03-16 21:49:00,30.1,13.2,29.81,North,0,0.0,0.0,49,0.00,,,0.00,WUHU216HW,2013-03-17 01:49:00,
2013-03-16 21:54:00,29.9,13.5,29.81,North,0,0.0,0.0,50,0.00,,,0.00,WUHU216HW,2013-03-17 01:54:00,
2013-03-16 21:59:00,29.7,13.4,29.81,North,0,0.0,0.0,50,0.00,,,0.00,WUHU216HW,2013-03-17 01:59:00,
2013-03-16 22:04:00,29.5,13.6,29.81,North,0,0.0,0.0,51,0.00,,,0.00,WUHU216HW,2013-03-17 02:04:00,
2013-03-16 22:09:00,29.2,13.3,29.82,North,0,0.0,0.0,51,0.00,,,0.00,WUHU216HW,2013-03-17 02:09:00,
2013-03-16 22:14:00,29.2,13.3,29.82,North,0,0.0,0.0,51,0.00,,,0.00,WUHU216HW,2013-03-17 02:14:00,
2013-03-16 22:19:00,29.0,13.6,29.82,North,0,0.0,0.0,52,0.00,,,0.00,WUHU216HW,2013-03-17 02:19:00,
2013-03-16 22:24:00,28.8,13.4,29.83,North,0,0.0,0.0,52,0.00,,,0.00,WUHU216HW,2013-03-17 02:24:00,
2013-03-16 22:29:00,28.8,13.4,29.83,North,0,0.0,0.0,52,0.00,,,0.00,WUHU216HW,2013-03-17 02:29:00,
2013-03-16 22:34:00,28.8,13.4,29.83,North,0,0.0,0.0,52,0.00,,,0.00,WUHU216HW,2013-03-17 02:34:00,
2013-03-16 22:39:00,28.8,13.4,29.83,North,0,0.0,0.0,52,0.00,,,0.00,WUHU216HW,2013-03-17 02:39:00,
2013-03-16 22:44:00,28.8,13.4,29.83,North,0,0.0,0.0,52,0.00,,,0.00,WUHU216HW,2013-03-17 02:44:00,
2013-03-16 22:49:00,28.8,13.4,29.83,North,0,0.0,0.0,52,0.00,,,0.00,WUHU216HW,2013-03-17 02:49:00,
2013-03-16 22:54:00,28.6,13.2,29.83,North,0,0.0,0.0,52,0.00,,,0.00,WUHU216HW,2013-03-17 02:54:00,
2013-03-16 22:59:00,28.4,13.1,29.83,North,0,0.0,0.0,52,0.00,,,0.00,WUHU216HW,2013-03-17 02:59:00,
2013-03-16 23:04:00,28.3,12.9,29.83,North,0,0.0,0.0,52,0.00,,,0.00,WUHU216HW,2013-03-17 03:04:00,
2013-03-16 23:09:00,27.9,13.0,29.83,North,0,0.0,0.0,53,0.00,,,0.00,WUHU216HW,2013-03-17 03:09:00,
2013-03-16 23:14:00,27.9,13.0,29.84,North,0,0.0,0.0,53,0.00,,,0.00,WUHU216HW,2013-03-17 03:14:00,
2013-03-16 23:19:00,27.9,13.0,29.84,North,0,0.0,0.0,53,0.00,,,0.00,WUHU216HW,2013-03-17 03:19:00,
2013-03-16 23:24:00,27.9,12.5,29.84,North,0,0.0,0.0,52,0.00,,,0.00,WUHU216HW,2013-03-17 03:24:00,
2013-03-16 23:29:00,27.7,12.3,29.84,North,0,0.0,0.0,52,0.00,,,0.00,WUHU216HW,2013-03-17 03:29:00,
2013-03-16 23:34:00,27.7,12.8,29.84,North,0,0.0,0.0,53,0.00,,,0.00,WUHU216HW,2013-03-17 03:34:00,
2013-03-16 23:39:00,27.4,12.4,29.84,North,0,0.0,0.0,53,0.00,,,0.00,WUHU216HW,2013-03-17 03:39:00,
2013-03-16 23:44:00,27.0,12.1,29.85,North,0,0.0,0.0,53,0.00,,,0.00,WUHU216HW,2013-03-17 03:44:00,
2013-03-16 23:49:00,26.8,11.9,29.85,North,0,0.0,0.0,53,0.00,,,0.00,WUHU216HW,2013-03-17 03:49:00,
2013-03-16 23:54:00,26.6,12.1,29.85,North,0,0.0,0.0,54,0.00,,,0.00,WUHU216HW,2013-03-17 03:54:00,
2013-03-16 23:59:00,26.3,11.8,29.85,North,0,0.0,0.0,54,0.00,,,0.00,WUHU216HW,2013-03-17 03:59:00,